createdAt,value
2023-09-24T00:01:28.455Z,101850.94
2023-09-24T00:03:54.960Z,101846.88
2023-09-24T00:06:21.450Z,101851.16
2023-09-24T00:08:49.709Z,101851.16
2023-09-24T00:11:16.735Z,101845.94
2023-09-24T00:13:43.243Z,101852.97
2023-09-24T00:16:10.944Z,101852.25
2023-09-24T00:18:38.632Z,101850.97
2023-09-24T00:21:05.967Z,101851.56
2023-09-24T00:23:32.470Z,101849.41
2023-09-24T00:25:59.114Z,101854.38
2023-09-24T00:28:26.130Z,101864.63
2023-09-24T00:31:01.996Z,101860.81
2023-09-24T00:33:30.550Z,101864.03
2023-09-24T00:36:02.875Z,101860.13
2023-09-24T00:38:29.304Z,101858.94
2023-09-24T00:40:55.968Z,101854.75
2023-09-24T00:43:29.805Z,101860.34
2023-09-24T00:46:08.264Z,101854.28
2023-09-24T00:48:35.179Z,101856.19
2023-09-24T00:51:03.421Z,101853.09
2023-09-24T00:53:31.586Z,101856.50
2023-09-24T00:55:58.666Z,101869.09
2023-09-24T00:58:27.146Z,101868.72
2023-09-24T01:00:55.694Z,101875.00
2023-09-24T01:03:24.134Z,101874.16
2023-09-24T01:05:51.857Z,101871.81
2023-09-24T01:08:24.307Z,101872.97
2023-09-24T01:10:51.542Z,101883.63
2023-09-24T01:13:24.311Z,101872.16
2023-09-24T01:15:51.925Z,101874.03
2023-09-24T01:18:20.712Z,101870.72
2023-09-24T01:20:48.334Z,101876.41
2023-09-24T01:23:15.877Z,101882.53
2023-09-24T01:25:44.336Z,101882.78
2023-09-24T01:28:15.767Z,101885.25
2023-09-24T01:30:42.202Z,101887.28
2023-09-24T01:33:08.813Z,101893.19
2023-09-24T01:35:36.451Z,101893.50
2023-09-24T01:38:07.065Z,101897.16
2023-09-24T01:40:36.615Z,101902.25
2023-09-24T01:43:05.877Z,101909.97
2023-09-24T01:45:36.320Z,101911.56
2023-09-24T01:48:03.974Z,101906.94
2023-09-24T01:50:33.396Z,101917.00
2023-09-24T01:53:00.664Z,101914.88
2023-09-24T01:55:28.130Z,101911.19
2023-09-24T01:57:55.725Z,101912.53
2023-09-24T02:00:24.842Z,101912.31
2023-09-24T02:02:52.277Z,101918.38
2023-09-24T02:05:20.530Z,101916.69
2023-09-24T02:07:50.301Z,101915.97
2023-09-24T02:10:20.053Z,101912.88
2023-09-24T02:12:47.568Z,101912.03
2023-09-24T02:15:15.552Z,101919.00
2023-09-24T02:17:43.026Z,101914.00
2023-09-24T02:20:33.640Z,101919.91
2023-09-24T02:23:02.480Z,101924.69
2023-09-24T02:25:33.854Z,101920.16
2023-09-24T02:28:00.898Z,101922.19
2023-09-24T02:30:31.684Z,101918.88
2023-09-24T02:32:59.811Z,101925.22
2023-09-24T02:35:26.877Z,101931.38
2023-09-24T02:37:54.106Z,101933.78
2023-09-24T02:40:27.472Z,101924.75
2023-09-24T02:42:55.994Z,101924.41
2023-09-24T02:45:22.324Z,101926.97
2023-09-24T02:47:51.881Z,101925.28
2023-09-24T02:50:19.555Z,101929.53
2023-09-24T02:52:50.079Z,101925.38
2023-09-24T02:55:17.075Z,101925.84
2023-09-24T02:57:45.293Z,101925.91
2023-09-24T03:00:18.372Z,101924.72
2023-09-24T03:02:46.154Z,101928.41
2023-09-24T03:05:22.023Z,101934.47
2023-09-24T03:07:49.920Z,101942.63
2023-09-24T03:10:17.319Z,101936.38
2023-09-24T03:12:44.670Z,101942.25
2023-09-24T03:15:11.480Z,101942.78
2023-09-24T03:17:39.614Z,101943.25
2023-09-24T03:20:12.736Z,101949.91
2023-09-24T03:22:39.308Z,101950.34
2023-09-24T03:25:05.972Z,101951.63
2023-09-24T03:27:33.288Z,101962.50
2023-09-24T03:30:00.051Z,101957.94
2023-09-24T03:32:26.684Z,101961.78
2023-09-24T03:34:53.918Z,101964.72
2023-09-24T03:37:20.369Z,101969.34
2023-09-24T03:39:46.766Z,101966.44
2023-09-24T03:42:15.183Z,101982.84
2023-09-24T03:44:41.585Z,101976.13
2023-09-24T03:47:07.940Z,101982.03
2023-09-24T03:49:34.347Z,101976.41
2023-09-24T03:52:00.728Z,101980.41
2023-09-24T03:54:27.228Z,101979.13
2023-09-24T03:56:53.725Z,101993.16
2023-09-24T03:59:20.177Z,101983.63
2023-09-24T04:01:46.571Z,101987.38
2023-09-24T04:04:13.539Z,101992.56
2023-09-24T04:06:41.449Z,101991.78
2023-09-24T04:09:09.471Z,101987.38
2023-09-24T04:11:35.942Z,101992.69
2023-09-24T04:14:03.203Z,101991.47
2023-09-24T04:16:29.662Z,101994.38
2023-09-24T04:18:55.995Z,102000.25
2023-09-24T04:21:22.322Z,101997.13
2023-09-24T04:23:49.011Z,102008.00
2023-09-24T04:26:22.894Z,102013.44
2023-09-24T04:28:58.721Z,102005.78
2023-09-24T04:31:25.079Z,102014.19
2023-09-24T04:33:51.649Z,102015.00
2023-09-24T04:36:19.132Z,102012.09
2023-09-24T04:38:45.866Z,102014.25
2023-09-24T04:41:12.246Z,102017.84
2023-09-24T04:43:38.744Z,102026.00
2023-09-24T04:46:08.706Z,102029.13
2023-09-24T04:48:36.620Z,102028.09
2023-09-24T04:51:03.281Z,102033.53
2023-09-24T04:53:29.692Z,102029.59
2023-09-24T04:55:56.232Z,102037.28
2023-09-24T04:58:23.159Z,102043.34
2023-09-24T05:00:49.678Z,102037.75
2023-09-24T05:03:16.290Z,102050.09
2023-09-24T05:05:43.693Z,102038.78
2023-09-24T05:08:11.364Z,102040.66
2023-09-24T05:10:41.518Z,102050.09
2023-09-24T05:13:08.043Z,102055.75
2023-09-24T05:15:34.432Z,102055.69
2023-09-24T05:18:01.004Z,102066.56
2023-09-24T05:20:31.367Z,102067.59
2023-09-24T05:22:57.999Z,102067.47
2023-09-24T05:25:24.491Z,102073.34
2023-09-24T05:27:50.908Z,102068.78
2023-09-24T05:30:19.112Z,102069.66
2023-09-24T05:32:45.611Z,102067.97
2023-09-24T05:35:12.126Z,102073.81
2023-09-24T05:37:40.357Z,102075.06
2023-09-24T05:40:07.328Z,102077.19
2023-09-24T05:42:33.752Z,102076.09
2023-09-24T05:45:00.951Z,102079.88
2023-09-24T05:47:28.652Z,102087.00
2023-09-24T05:49:55.533Z,102086.34
2023-09-24T05:52:21.938Z,102082.56
2023-09-24T05:54:48.350Z,102084.63
2023-09-24T05:57:14.834Z,102095.50
2023-09-24T05:59:41.432Z,102089.00
2023-09-24T06:02:07.911Z,102088.34
2023-09-24T06:04:34.401Z,102092.94
2023-09-24T06:07:00.958Z,102087.69
2023-09-24T06:09:29.840Z,102094.56
2023-09-24T06:11:56.849Z,102096.19
2023-09-24T06:14:23.294Z,102100.56
2023-09-24T06:16:49.632Z,102103.22
2023-09-24T06:19:16.129Z,102113.28
2023-09-24T06:21:42.456Z,102119.06
2023-09-24T06:24:08.826Z,102120.72
2023-09-24T06:26:36.363Z,102128.41
2023-09-24T06:29:10.956Z,102135.88
2023-09-24T06:31:38.827Z,102139.00
2023-09-24T06:34:05.389Z,102138.53
2023-09-24T06:36:32.154Z,102138.81
2023-09-24T06:39:00.669Z,102149.06
2023-09-24T06:41:27.158Z,102145.88
2023-09-24T06:43:53.739Z,102149.56
2023-09-24T06:46:20.199Z,102151.22
2023-09-24T06:48:46.975Z,102146.94
2023-09-24T06:51:13.512Z,102144.72
2023-09-24T06:53:40.612Z,102148.34
2023-09-24T06:56:08.322Z,102157.06
2023-09-24T06:58:36.333Z,102148.16
2023-09-24T07:01:04.661Z,102155.97
2023-09-24T07:03:32.095Z,102152.03
2023-09-24T07:05:58.878Z,102156.94
2023-09-24T07:08:25.831Z,102157.44
2023-09-24T07:11:32.942Z,102157.97
2023-09-24T07:13:59.792Z,102154.50
2023-09-24T07:16:27.867Z,102163.66
2023-09-24T07:18:55.759Z,102165.16
2023-09-24T07:21:34.567Z,102168.28
2023-09-24T07:24:03.537Z,102164.31
2023-09-24T07:26:30.075Z,102161.09
2023-09-24T07:28:56.739Z,102169.19
2023-09-24T07:31:29.710Z,102176.81
2023-09-24T07:33:59.398Z,102173.50
2023-09-24T07:38:55.459Z,102165.69
2023-09-24T07:41:22.364Z,102172.22
2023-09-24T07:43:49.629Z,102172.91
2023-09-24T07:46:16.629Z,102169.78
2023-09-24T07:48:45.030Z,102169.31
2023-09-24T07:51:12.405Z,102178.56
2023-09-24T07:53:39.605Z,102168.91
2023-09-24T07:56:11.005Z,102172.94
2023-09-24T07:58:39.560Z,102171.84
2023-09-24T08:01:11.367Z,102175.25
2023-09-24T08:03:38.836Z,102180.75
2023-09-24T08:06:06.991Z,102175.09
2023-09-24T08:08:49.817Z,102170.50
2023-09-24T08:11:16.968Z,102172.47
2023-09-24T08:13:43.301Z,102173.50
2023-09-24T08:16:10.368Z,102162.81
2023-09-24T08:18:36.953Z,102168.53
2023-09-24T08:21:03.512Z,102170.31
2023-09-24T08:23:30.024Z,102172.81
2023-09-24T08:25:56.408Z,102178.97
2023-09-24T08:28:22.763Z,102178.34
2023-09-24T08:30:49.420Z,102174.22
2023-09-24T08:33:16.005Z,102183.81
2023-09-24T08:35:42.538Z,102180.09
2023-09-24T08:38:08.998Z,102184.34
2023-09-24T08:40:35.568Z,102179.13
2023-09-24T08:43:11.447Z,102174.50
2023-09-24T08:45:38.400Z,102164.69
2023-09-24T08:48:08.867Z,102164.38
2023-09-24T08:50:40.786Z,102158.47
2023-09-24T08:53:11.763Z,102165.19
2023-09-24T08:55:40.240Z,102165.53
2023-09-24T08:58:06.608Z,102165.38
2023-09-24T09:00:33.165Z,102165.94
2023-09-24T09:03:04.958Z,102163.25
2023-09-24T09:05:36.086Z,102166.72
2023-09-24T09:08:04.355Z,102156.44
2023-09-24T09:10:35.788Z,102164.75
2023-09-24T09:13:23.558Z,102159.38
2023-09-24T09:16:09.176Z,102165.13
2023-09-24T09:18:36.342Z,102161.53
2023-09-24T09:21:02.985Z,102164.00
2023-09-24T09:23:40.141Z,102160.53
2023-09-24T09:26:07.139Z,102162.28
2023-09-24T09:28:35.875Z,102154.59
2023-09-24T09:31:07.377Z,102159.88
2023-09-24T09:33:53.169Z,102149.47
2023-09-24T09:36:24.002Z,102145.22
2023-09-24T09:38:54.839Z,102147.47
2023-09-24T09:41:24.386Z,102141.53
2023-09-24T09:43:53.488Z,102144.00
2023-09-24T09:46:21.880Z,102137.16
2023-09-24T09:49:03.653Z,102142.75
2023-09-24T09:51:49.960Z,102129.09
2023-09-24T09:54:19.116Z,102139.34
2023-09-24T09:56:45.835Z,102128.41
2023-09-24T09:59:12.194Z,102118.84
2023-09-24T10:01:38.822Z,102121.69
2023-09-24T10:04:08.416Z,102121.72
2023-09-24T10:06:39.414Z,102111.31
2023-09-24T10:09:27.859Z,102103.69
2023-09-24T10:11:57.116Z,102103.19
2023-09-24T10:14:38.171Z,102107.88
2023-09-24T10:17:16.773Z,102102.63
2023-09-24T10:19:58.353Z,102104.88
2023-09-24T10:22:36.117Z,102110.44
2023-09-24T10:25:31.543Z,102098.88
2023-09-24T10:28:09.696Z,102098.38
2023-09-24T10:31:04.320Z,102098.13
2023-09-24T10:34:03.591Z,102097.06
2023-09-24T10:36:35.118Z,102099.53
2023-09-24T10:39:05.909Z,102098.47
2023-09-24T10:41:34.486Z,102096.28
2023-09-24T10:44:26.784Z,102091.13
2023-09-24T10:46:57.927Z,102093.91
2023-09-24T10:49:26.548Z,102088.69
2023-09-24T10:52:00.162Z,102080.44
2023-09-24T10:54:27.309Z,102080.50
2023-09-24T10:56:53.856Z,102084.94
2023-09-24T10:59:34.116Z,102081.06
2023-09-24T11:02:19.712Z,102073.94
2023-09-24T11:04:46.318Z,102069.53
2023-09-24T11:07:13.578Z,102065.16
2023-09-24T11:09:40.582Z,102058.56
2023-09-24T11:12:09.711Z,102054.72
2023-09-24T11:14:36.318Z,102055.25
2023-09-24T11:17:03.177Z,102060.78
2023-09-24T11:19:49.677Z,102059.16
2023-09-24T11:22:27.437Z,102053.09
2023-09-24T11:25:13.868Z,102054.16
2023-09-24T11:27:48.807Z,102045.63
2023-09-24T11:30:23.069Z,102044.28
2023-09-24T11:32:52.217Z,102035.47
2023-09-24T11:35:26.224Z,102037.66
2023-09-24T11:38:02.400Z,102032.69
2023-09-24T11:40:34.278Z,102026.34
2023-09-24T11:43:13.893Z,102017.25
2023-09-24T11:45:51.387Z,102012.59
2023-09-24T11:48:20.516Z,102015.63
2023-09-24T11:50:55.672Z,102012.88
2023-09-24T11:53:24.930Z,101995.22
2023-09-24T11:55:58.957Z,102005.44
2023-09-24T11:58:29.365Z,102003.50
2023-09-24T12:00:58.516Z,101988.63
2023-09-24T12:03:26.063Z,101983.38
2023-09-24T12:05:52.829Z,101988.59
2023-09-24T12:08:19.578Z,101987.47
2023-09-24T12:10:47.585Z,101981.91
2023-09-24T12:13:15.726Z,101994.03
2023-09-24T12:15:42.323Z,101985.16
2023-09-24T12:18:09.766Z,101992.88
2023-09-24T12:20:38.755Z,102000.03
2023-09-24T12:23:07.534Z,101999.50
2023-09-24T12:25:39.126Z,101992.34
2023-09-24T12:28:11.730Z,101999.22
2023-09-24T12:30:39.644Z,101991.75
2023-09-24T12:33:08.000Z,101988.75
2023-09-24T12:35:38.764Z,101993.75
2023-09-24T12:38:05.183Z,101994.53
2023-09-24T12:40:31.603Z,101995.88
2023-09-24T12:42:58.055Z,101987.59
2023-09-24T12:45:24.447Z,101978.16
2023-09-24T12:47:50.951Z,101982.28
2023-09-24T12:50:17.914Z,101986.16
2023-09-24T12:52:46.111Z,101976.75
2023-09-24T12:55:16.482Z,101972.84
2023-09-24T12:57:43.482Z,101973.44
2023-09-24T13:00:13.785Z,101969.84
2023-09-24T13:02:42.605Z,101974.25
2023-09-24T13:05:10.756Z,101971.94
2023-09-24T13:07:39.681Z,101971.91
2023-09-24T13:10:07.298Z,101974.34
2023-09-24T13:12:33.915Z,101969.09
2023-09-24T13:15:00.473Z,101966.38
2023-09-24T13:17:27.242Z,101965.84
2023-09-24T13:19:53.671Z,101972.75
2023-09-24T13:22:20.027Z,101966.38
2023-09-24T13:24:47.034Z,101964.69
2023-09-24T13:27:13.397Z,101958.88
2023-09-24T13:29:39.841Z,101943.97
2023-09-24T13:32:06.287Z,101953.03
2023-09-24T13:34:33.319Z,101943.06
2023-09-24T13:37:00.131Z,101943.31
2023-09-24T13:39:27.040Z,101938.94
2023-09-24T13:41:53.526Z,101935.56
2023-09-24T13:44:20.009Z,101939.34
2023-09-24T13:46:46.624Z,101937.94
2023-09-24T13:49:13.057Z,101934.03
2023-09-24T13:51:42.855Z,101934.06
2023-09-24T13:54:10.447Z,101942.59
2023-09-24T13:56:37.873Z,101938.09
2023-09-24T13:59:05.221Z,101936.06
2023-09-24T14:01:32.004Z,101942.28
2023-09-24T14:03:59.495Z,101945.56
2023-09-24T14:06:27.525Z,101944.88
2023-09-24T14:09:12.686Z,101937.72
2023-09-24T14:11:57.586Z,101932.88
2023-09-24T14:14:24.111Z,101934.47
2023-09-24T14:16:50.933Z,101941.13
2023-09-24T14:19:17.435Z,101930.69
2023-09-24T14:21:44.060Z,101938.88
2023-09-24T14:24:12.197Z,101925.78
2023-09-24T14:26:40.308Z,101926.22
2023-09-24T14:29:08.178Z,101929.22
2023-09-24T14:31:34.626Z,101928.16
2023-09-24T14:34:00.987Z,101925.81
2023-09-24T14:36:27.568Z,101920.06
2023-09-24T14:38:53.971Z,101925.16
2023-09-24T14:41:20.447Z,101935.53
2023-09-24T14:43:47.082Z,101922.63
2023-09-24T14:46:13.735Z,101923.81
2023-09-24T14:48:40.178Z,101926.72
2023-09-24T14:51:08.282Z,101923.72
2023-09-24T14:53:35.204Z,101913.56
2023-09-24T14:56:01.985Z,101907.63
2023-09-24T14:58:29.843Z,101902.03
2023-09-24T15:01:07.866Z,101904.34
2023-09-24T15:03:36.264Z,101896.56
2023-09-24T15:06:05.705Z,101899.06
2023-09-24T15:08:33.654Z,101885.91
2023-09-24T15:11:05.150Z,101892.84
2023-09-24T15:13:31.953Z,101887.38
2023-09-24T15:15:58.349Z,101892.25
2023-09-24T15:18:24.905Z,101888.66
2023-09-24T15:20:52.152Z,101879.53
2023-09-24T15:23:19.356Z,101881.31
2023-09-24T15:25:46.718Z,101874.34
2023-09-24T15:28:13.828Z,101878.25
2023-09-24T15:30:43.834Z,101875.44
2023-09-24T15:33:11.035Z,101864.38
2023-09-24T15:35:38.452Z,101866.03
2023-09-24T15:38:12.230Z,101863.84
2023-09-24T15:40:39.154Z,101863.31
2023-09-24T15:43:06.727Z,101858.38
2023-09-24T15:45:34.115Z,101858.59
2023-09-24T15:48:04.136Z,101848.06
2023-09-24T15:50:32.550Z,101844.63
2023-09-24T15:52:59.310Z,101848.03
2023-09-24T15:55:25.814Z,101855.41
2023-09-24T15:57:52.148Z,101856.91
2023-09-24T16:00:20.012Z,101851.72
2023-09-24T16:02:46.648Z,101852.06
2023-09-24T16:05:13.187Z,101843.25
2023-09-24T16:07:40.266Z,101847.97
2023-09-24T16:10:07.657Z,101847.69
2023-09-24T16:12:34.390Z,101844.16
2023-09-24T16:15:01.380Z,101849.75
2023-09-24T16:17:27.848Z,101850.63
2023-09-24T16:19:54.262Z,101856.16
2023-09-24T16:22:20.681Z,101850.38
2023-09-24T16:24:47.156Z,101861.13
2023-09-24T16:27:13.849Z,101857.59
2023-09-24T16:29:40.459Z,101861.50
2023-09-24T16:32:07.105Z,101862.59
2023-09-24T16:34:35.769Z,101861.22
2023-09-24T16:37:02.325Z,101861.56
2023-09-24T16:39:28.744Z,101870.94
2023-09-24T16:41:55.292Z,101870.97
2023-09-24T16:44:21.941Z,101857.75
2023-09-24T16:46:49.694Z,101865.47
2023-09-24T16:49:16.298Z,101866.34
2023-09-24T16:51:43.068Z,101864.97
2023-09-24T16:54:09.632Z,101867.19
2023-09-24T16:56:36.035Z,101868.84
2023-09-24T16:59:02.557Z,101870.81
2023-09-24T17:01:29.026Z,101872.75
2023-09-24T17:03:56.030Z,101874.44
2023-09-24T17:06:24.427Z,101881.34
2023-09-24T17:08:51.111Z,101873.94
2023-09-24T17:11:17.499Z,101875.88
2023-09-24T17:13:43.866Z,101876.19
2023-09-24T17:16:12.356Z,101871.50
2023-09-24T17:18:39.372Z,101879.78
2023-09-24T17:21:10.937Z,101879.19
2023-09-24T17:23:38.478Z,101870.44
2023-09-24T17:26:24.155Z,101877.31
2023-09-24T17:28:52.615Z,101876.25
2023-09-24T17:31:20.089Z,101879.53
2023-09-24T17:33:46.748Z,101879.00
2023-09-24T17:36:18.759Z,101885.38
2023-09-24T17:38:47.458Z,101893.91
2023-09-24T17:41:15.254Z,101890.88
2023-09-24T17:43:42.186Z,101889.50
2023-09-24T17:46:10.056Z,101890.88
2023-09-24T17:48:36.912Z,101892.53
2023-09-24T17:51:06.337Z,101898.56
2023-09-24T17:53:33.914Z,101899.91
2023-09-24T17:56:01.679Z,101901.59
2023-09-24T17:58:28.658Z,101910.34
2023-09-24T18:01:12.738Z,101905.13
2023-09-24T18:03:43.207Z,101913.91
2023-09-24T18:06:11.412Z,101911.13
2023-09-24T18:08:39.237Z,101916.34
2023-09-24T18:11:05.878Z,101914.69
2023-09-24T18:13:32.739Z,101915.50
2023-09-24T18:16:00.579Z,101920.13
2023-09-24T18:18:29.180Z,101923.41
2023-09-24T18:21:00.082Z,101926.69
2023-09-24T18:23:28.197Z,101930.75
2023-09-24T18:25:54.966Z,101926.06
2023-09-24T18:28:21.702Z,101933.75
2023-09-24T18:30:48.596Z,101932.91
2023-09-24T18:33:15.210Z,101929.00
2023-09-24T18:35:42.817Z,101934.19
2023-09-24T18:38:10.221Z,101934.19
2023-09-24T18:40:40.581Z,101941.81
2023-09-24T18:43:07.364Z,101933.03
2023-09-24T18:45:35.185Z,101931.34
2023-09-24T18:48:01.722Z,101926.91
2023-09-24T18:50:29.668Z,101937.34
2023-09-24T18:52:56.129Z,101933.22
2023-09-24T18:55:23.144Z,101926.88
2023-09-24T18:57:49.491Z,101919.69
2023-09-24T19:00:16.124Z,101920.69
2023-09-24T19:02:44.710Z,101920.97
2023-09-24T19:05:12.234Z,101920.09
2023-09-24T19:07:39.194Z,101921.50
2023-09-24T19:10:05.842Z,101920.59
2023-09-24T19:12:32.379Z,101919.22
2023-09-24T19:14:58.807Z,101906.06
2023-09-24T19:17:25.232Z,101910.13
2023-09-24T19:19:54.530Z,101901.84
2023-09-24T19:22:21.227Z,101901.81
2023-09-24T19:24:52.188Z,101898.84
2023-09-24T19:27:18.633Z,101890.34
2023-09-24T19:29:45.012Z,101900.72
2023-09-24T19:32:11.494Z,101897.72
2023-09-24T19:34:37.999Z,101905.06
2023-09-24T19:37:04.585Z,101893.28
2023-09-24T19:39:31.106Z,101897.69
2023-09-24T19:41:57.663Z,101899.88
2023-09-24T19:44:24.825Z,101901.50
2023-09-24T19:46:52.075Z,101899.00
2023-09-24T19:49:18.844Z,101902.88
2023-09-24T19:51:45.443Z,101912.78
2023-09-24T19:54:12.049Z,101906.75
2023-09-24T19:56:38.485Z,101910.56
2023-09-24T19:59:04.985Z,101911.09
2023-09-24T20:01:31.788Z,101911.91
2023-09-24T20:04:01.783Z,101909.44
2023-09-24T20:06:28.190Z,101909.13
2023-09-24T20:08:58.933Z,101913.28
2023-09-24T20:11:25.938Z,101904.47
2023-09-24T20:13:55.695Z,101895.63
2023-09-24T20:16:22.796Z,101901.41
2023-09-24T20:18:49.556Z,101897.53
2023-09-24T20:21:16.210Z,101904.88
2023-09-24T20:23:42.776Z,101895.06
2023-09-24T20:26:11.765Z,101889.56
2023-09-24T20:28:47.612Z,101883.16
2023-09-24T20:31:17.312Z,101883.03
2023-09-24T20:34:00.018Z,101885.50
2023-09-24T20:36:28.080Z,101882.75
2023-09-24T20:38:57.858Z,101875.09
2023-09-24T20:41:24.345Z,101883.47
2023-09-24T20:43:51.021Z,101878.78
2023-09-24T20:46:19.769Z,101876.09
2023-09-24T20:48:46.669Z,101878.56
2023-09-24T20:51:13.351Z,101878.00
2023-09-24T20:53:39.841Z,101879.94
2023-09-24T20:56:06.234Z,101870.03
2023-09-24T20:58:32.694Z,101871.13
2023-09-24T21:01:00.124Z,101876.63
2023-09-24T21:03:27.024Z,101874.94
2023-09-24T21:05:53.429Z,101872.19
2023-09-24T21:08:20.471Z,101878.16
2023-09-24T21:10:46.915Z,101870.19
2023-09-24T21:13:13.248Z,101867.66
2023-09-24T21:15:39.749Z,101861.97
2023-09-24T21:18:06.343Z,101855.28
2023-09-24T21:20:36.189Z,101854.22
2023-09-24T21:23:02.824Z,101858.25
2023-09-24T21:25:30.280Z,101853.88
2023-09-24T21:27:59.886Z,101857.94
2023-09-24T21:30:26.321Z,101854.63
2023-09-24T21:32:53.207Z,101852.16
2023-09-24T21:35:19.883Z,101854.59
2023-09-24T21:37:46.310Z,101851.31
2023-09-24T21:40:12.717Z,101849.69
2023-09-24T21:42:39.058Z,101849.84
2023-09-24T21:45:06.510Z,101852.91
2023-09-24T21:47:33.214Z,101850.81
2023-09-24T21:50:00.636Z,101846.97
2023-09-24T21:52:27.041Z,101837.38
2023-09-24T21:54:55.359Z,101843.38
2023-09-24T21:57:22.577Z,101839.19
2023-09-24T21:59:49.527Z,101836.69
2023-09-24T22:02:16.208Z,101838.91
2023-09-24T22:04:42.939Z,101836.47
2023-09-24T22:07:09.725Z,101832.91
2023-09-24T22:09:36.351Z,101837.00
2023-09-24T22:12:02.949Z,101838.06
2023-09-24T22:14:29.402Z,101837.75
2023-09-24T22:16:55.833Z,101834.16
2023-09-24T22:19:22.210Z,101841.25
2023-09-24T22:21:48.562Z,101833.88
2023-09-24T22:24:15.021Z,101839.03
2023-09-24T22:26:41.429Z,101840.69
2023-09-24T22:29:10.257Z,101837.28
2023-09-24T22:31:38.354Z,101843.06
2023-09-24T22:34:05.116Z,101836.44
2023-09-24T22:36:31.498Z,101830.66
2023-09-24T22:38:58.010Z,101823.88
2023-09-24T22:41:24.378Z,101827.88
2023-09-24T22:43:50.977Z,101830.84
2023-09-24T22:46:17.490Z,101827.28
2023-09-24T22:48:44.011Z,101834.66
2023-09-24T22:51:10.485Z,101825.63
2023-09-24T22:53:37.155Z,101823.97
2023-09-24T22:56:04.515Z,101817.84
2023-09-24T22:58:30.885Z,101823.25
2023-09-24T23:00:57.432Z,101813.63
2023-09-24T23:03:23.853Z,101816.69
2023-09-24T23:05:50.545Z,101812.56
2023-09-24T23:08:16.999Z,101810.00
2023-09-24T23:10:43.500Z,101802.88
2023-09-24T23:13:11.884Z,101803.91
2023-09-24T23:15:39.330Z,101799.25
2023-09-24T23:18:06.529Z,101801.66
2023-09-24T23:20:33.116Z,101798.84
2023-09-24T23:22:59.472Z,101806.31
2023-09-24T23:25:26.010Z,101800.75
2023-09-24T23:27:52.440Z,101795.03
2023-09-24T23:30:21.263Z,101792.78
2023-09-24T23:32:47.874Z,101788.16
2023-09-24T23:35:15.506Z,101789.81
2023-09-24T23:37:41.915Z,101783.00
2023-09-24T23:40:09.618Z,101786.16
2023-09-24T23:42:36.053Z,101778.53
2023-09-24T23:45:03.666Z,101779.69
2023-09-24T23:47:30.140Z,101780.19
2023-09-24T23:49:56.599Z,101782.38
2023-09-24T23:52:23.037Z,101781.84
2023-09-24T23:54:49.405Z,101781.59
2023-09-24T23:57:15.862Z,101790.56
2023-09-24T23:59:42.420Z,101785.34
